createdAt,value
2023-03-18T00:01:23.756Z,44.58
2023-03-18T00:03:51.692Z,43.82
2023-03-18T00:06:22.066Z,43.92
2023-03-18T00:08:50.855Z,44.79
2023-03-18T00:11:20.131Z,45.44
2023-03-18T00:13:48.115Z,44.85
2023-03-18T00:16:16.692Z,44.60
2023-03-18T00:18:44.032Z,44.88
2023-03-18T00:21:11.306Z,44.93
2023-03-18T00:23:38.833Z,44.76
2023-03-18T00:26:06.867Z,45.13
2023-03-18T00:28:33.905Z,45.86
2023-03-18T00:31:09.208Z,44.76
2023-03-18T00:33:38.217Z,44.73
2023-03-18T00:36:07.391Z,44.04
2023-03-18T00:38:35.714Z,44.74
2023-03-18T00:41:11.801Z,44.74
2023-03-18T00:43:55.157Z,46.68
2023-03-18T00:46:25.736Z,46.57
2023-03-18T00:48:54.724Z,46.69
2023-03-18T00:51:24.102Z,46.80
2023-03-18T00:53:54.169Z,47.50
2023-03-18T00:56:24.117Z,48.05
2023-03-18T00:58:52.432Z,48.87
2023-03-18T01:01:20.070Z,49.31
2023-03-18T01:03:49.657Z,47.47
2023-03-18T01:06:21.121Z,49.07
2023-03-18T01:08:48.558Z,48.86
2023-03-18T01:11:16.098Z,47.57
2023-03-18T01:13:44.070Z,46.37
2023-03-18T01:16:11.952Z,46.66
2023-03-18T01:18:40.210Z,48.09
2023-03-18T01:21:08.848Z,46.70
2023-03-18T01:23:39.915Z,45.70
2023-03-18T01:26:07.746Z,45.85
2023-03-18T01:28:36.000Z,46.96
2023-03-18T01:31:04.748Z,47.82
2023-03-18T01:33:31.893Z,49.67
2023-03-18T01:36:00.681Z,49.50
2023-03-18T01:38:30.449Z,51.82
2023-03-18T01:41:04.064Z,52.63
2023-03-18T01:43:34.626Z,51.23
2023-03-18T01:46:41.341Z,51.71
2023-03-18T01:49:36.959Z,51.79
2023-03-18T01:52:10.958Z,51.84
2023-03-18T01:54:42.393Z,50.96
2023-03-18T01:57:09.593Z,51.01
2023-03-18T01:59:40.333Z,52.06
2023-03-18T02:02:10.629Z,50.65
2023-03-18T02:04:42.743Z,50.91
2023-03-18T02:07:26.718Z,50.76
2023-03-18T02:09:59.879Z,51.03
2023-03-18T02:12:33.511Z,50.96
2023-03-18T02:15:04.140Z,52.79
2023-03-18T02:17:36.028Z,51.67
2023-03-18T02:20:26.102Z,51.95
2023-03-18T02:22:58.943Z,52.14
2023-03-18T02:25:48.039Z,51.25
2023-03-18T02:28:21.693Z,52.61
2023-03-18T02:30:54.312Z,51.26
2023-03-18T02:33:26.838Z,51.29
2023-03-18T02:35:58.682Z,51.31
2023-03-18T02:38:26.599Z,51.09
2023-03-18T02:40:53.838Z,50.38
2023-03-18T02:43:32.499Z,49.14
2023-03-18T02:46:09.601Z,50.73
2023-03-18T02:48:40.652Z,49.96
2023-03-18T02:51:09.185Z,49.45
2023-03-18T02:53:36.977Z,49.48
2023-03-18T02:56:04.565Z,49.04
2023-03-18T02:58:32.469Z,48.73
2023-03-18T03:01:01.440Z,48.25
2023-03-18T03:03:29.348Z,48.04
2023-03-18T03:05:56.621Z,49.47
2023-03-18T03:08:25.197Z,49.68
2023-03-18T03:10:52.644Z,50.49
2023-03-18T03:13:22.329Z,51.60
2023-03-18T03:15:50.868Z,52.28
2023-03-18T03:18:17.920Z,53.83
2023-03-18T03:20:45.714Z,52.03
2023-03-18T03:23:15.775Z,51.86
2023-03-18T03:25:44.981Z,51.29
2023-03-18T03:28:14.194Z,52.38
2023-03-18T03:30:42.374Z,53.42
2023-03-18T03:33:10.281Z,54.08
2023-03-18T03:35:38.847Z,54.07
2023-03-18T03:38:06.598Z,54.38
2023-03-18T03:40:34.296Z,53.83
2023-03-18T03:43:01.553Z,53.87
2023-03-18T03:45:29.397Z,53.86
2023-03-18T03:47:56.541Z,53.30
2023-03-18T03:50:23.902Z,52.77
2023-03-18T03:52:50.946Z,52.78
2023-03-18T03:55:20.349Z,53.89
2023-03-18T03:57:48.448Z,53.94
2023-03-18T04:00:20.634Z,54.50
2023-03-18T04:02:51.437Z,53.66
2023-03-18T04:05:23.714Z,53.30
2023-03-18T04:07:52.567Z,52.27
2023-03-18T04:10:28.462Z,51.74
2023-03-18T04:12:55.553Z,51.17
2023-03-18T04:15:23.151Z,51.17
2023-03-18T04:17:53.363Z,50.66
2023-03-18T04:20:21.030Z,51.94
2023-03-18T04:22:49.378Z,51.05
2023-03-18T04:25:19.163Z,51.03
2023-03-18T04:27:48.846Z,51.62
2023-03-18T04:30:17.964Z,51.30
2023-03-18T04:32:56.890Z,51.36
2023-03-18T04:35:23.908Z,51.90
2023-03-18T04:37:51.433Z,51.32
2023-03-18T04:40:20.089Z,52.43
2023-03-18T04:42:48.324Z,51.79
2023-03-18T04:45:17.898Z,51.95
2023-03-18T04:47:45.632Z,50.76
2023-03-18T04:50:14.683Z,50.92
2023-03-18T04:52:43.784Z,50.32
2023-03-18T04:55:16.603Z,48.26
2023-03-18T04:57:44.557Z,45.72
2023-03-18T05:00:17.627Z,45.73
2023-03-18T05:02:47.760Z,46.98
2023-03-18T05:05:15.026Z,46.44
2023-03-18T05:07:47.261Z,44.84
2023-03-18T05:10:16.548Z,45.16
2023-03-18T05:12:43.701Z,45.34
2023-03-18T05:15:14.455Z,45.32
2023-03-18T05:17:47.793Z,45.67
2023-03-18T05:20:14.967Z,46.21
2023-03-18T05:22:44.991Z,46.00
2023-03-18T05:25:21.796Z,49.56
2023-03-18T05:27:49.712Z,45.37
2023-03-18T05:30:26.820Z,43.68
2023-03-18T05:32:55.184Z,45.95
2023-03-18T05:35:36.451Z,47.39
2023-03-18T05:38:04.800Z,44.32
2023-03-18T05:40:31.862Z,45.25
2023-03-18T05:43:05.607Z,41.13
2023-03-18T05:45:40.506Z,38.62
2023-03-18T05:48:10.765Z,37.61
2023-03-18T05:50:48.595Z,35.79
2023-03-18T05:53:19.668Z,32.84
2023-03-18T05:55:50.032Z,33.06
2023-03-18T05:58:18.880Z,32.43
2023-03-18T06:00:48.475Z,30.12
2023-03-18T06:03:15.540Z,31.42
2023-03-18T06:05:42.648Z,31.45
2023-03-18T06:08:09.837Z,28.94
2023-03-18T06:10:37.970Z,31.77
2023-03-18T06:13:06.033Z,31.67
2023-03-18T06:15:33.509Z,31.19
2023-03-18T06:18:00.795Z,30.81
2023-03-18T06:20:28.278Z,29.13
2023-03-18T06:22:55.275Z,27.51
2023-03-18T06:25:26.544Z,26.92
2023-03-18T06:27:53.895Z,29.28
2023-03-18T06:30:24.870Z,28.91
2023-03-18T06:32:53.504Z,26.12
2023-03-18T06:35:26.729Z,24.08
2023-03-18T06:37:54.808Z,24.38
2023-03-18T06:40:22.424Z,23.04
2023-03-18T06:42:51.082Z,28.10
2023-03-18T06:45:28.452Z,32.17
2023-03-18T06:48:04.482Z,33.03
2023-03-18T06:50:33.991Z,32.86
2023-03-18T06:53:01.335Z,32.71
2023-03-18T06:55:31.254Z,28.53
2023-03-18T06:57:59.224Z,27.84
2023-03-18T07:00:34.332Z,26.59
2023-03-18T07:03:01.920Z,30.47
2023-03-18T07:05:29.650Z,29.41
2023-03-18T07:07:57.014Z,31.25
2023-03-18T07:10:27.573Z,29.50
2023-03-18T07:13:00.405Z,30.86
2023-03-18T07:15:28.953Z,28.61
2023-03-18T07:18:00.530Z,28.47
2023-03-18T07:20:28.850Z,32.46
2023-03-18T07:22:55.959Z,35.68
2023-03-18T07:25:23.214Z,36.86
2023-03-18T07:27:50.805Z,32.93
2023-03-18T07:30:19.001Z,36.73
2023-03-18T07:32:46.294Z,36.81
2023-03-18T07:35:16.192Z,34.19
2023-03-18T07:37:43.598Z,36.56
2023-03-18T07:40:11.917Z,35.40
2023-03-18T07:42:38.929Z,34.87
2023-03-18T07:45:07.965Z,37.38
2023-03-18T07:47:35.247Z,38.06
2023-03-18T07:50:02.744Z,35.07
2023-03-18T07:52:29.912Z,35.20
2023-03-18T07:54:56.996Z,35.03
2023-03-18T07:57:24.254Z,33.60
2023-03-18T07:59:52.031Z,31.67
2023-03-18T08:02:20.554Z,31.76
2023-03-18T08:04:48.068Z,39.01
2023-03-18T08:07:15.173Z,44.32
2023-03-18T08:09:42.189Z,47.51
2023-03-18T08:12:09.581Z,44.23
2023-03-18T08:14:36.938Z,46.92
2023-03-18T08:17:04.202Z,46.96
2023-03-18T08:19:31.240Z,47.78
2023-03-18T08:21:58.364Z,48.00
2023-03-18T08:24:25.527Z,48.88
2023-03-18T08:26:52.680Z,50.96
2023-03-18T08:29:19.728Z,50.51
2023-03-18T08:31:46.867Z,51.31
2023-03-18T08:34:14.478Z,49.46
2023-03-18T08:36:42.964Z,47.33
2023-03-18T08:39:10.194Z,48.67
2023-03-18T08:41:37.584Z,51.97
2023-03-18T08:44:06.715Z,50.97
2023-03-18T08:46:33.814Z,48.94
2023-03-18T08:49:00.779Z,47.32
2023-03-18T08:51:29.205Z,46.10
2023-03-18T08:53:56.615Z,45.18
2023-03-18T08:56:24.117Z,46.55
2023-03-18T08:58:51.238Z,46.35
2023-03-18T09:01:22.096Z,47.74
2023-03-18T09:03:50.806Z,48.06
2023-03-18T09:06:18.625Z,46.96
2023-03-18T09:08:45.649Z,48.09
2023-03-18T09:11:13.925Z,50.12
2023-03-18T09:13:41.218Z,49.03
2023-03-18T09:16:08.513Z,48.74
2023-03-18T09:18:35.588Z,50.16
2023-03-18T09:21:03.464Z,51.29
2023-03-18T09:23:31.881Z,49.97
2023-03-18T09:26:00.616Z,49.49
2023-03-18T09:28:27.954Z,53.15
2023-03-18T09:30:55.883Z,52.81
2023-03-18T09:33:24.810Z,52.83
2023-03-18T09:35:51.830Z,50.68
2023-03-18T09:38:20.845Z,52.72
2023-03-18T09:41:11.052Z,52.29
2023-03-18T09:44:03.252Z,53.99
2023-03-18T09:46:58.192Z,54.33
2023-03-18T09:49:48.538Z,53.84
2023-03-18T09:52:24.339Z,53.29
2023-03-18T09:55:20.025Z,53.77
2023-03-18T09:57:50.112Z,53.78
2023-03-18T10:00:26.168Z,52.64
2023-03-18T10:03:00.252Z,55.26
2023-03-18T10:05:34.873Z,53.29
2023-03-18T10:08:17.070Z,55.84
2023-03-18T10:10:47.718Z,56.27
2023-03-18T10:13:52.568Z,58.00
2023-03-18T10:16:28.241Z,58.60
2023-03-18T10:18:55.765Z,58.37
2023-03-18T10:21:35.329Z,57.59
2023-03-18T10:24:30.769Z,59.44
2023-03-18T10:27:10.699Z,60.61
2023-03-18T10:30:18.469Z,63.16
2023-03-18T10:33:19.191Z,62.83
2023-03-18T10:36:03.251Z,60.71
2023-03-18T10:38:45.264Z,61.71
2023-03-18T10:41:32.623Z,63.04
2023-03-18T10:44:25.612Z,64.54
2023-03-18T10:47:00.905Z,64.14
2023-03-18T10:49:31.442Z,64.25
2023-03-18T10:52:10.293Z,64.82
2023-03-18T10:54:41.723Z,65.64
2023-03-18T10:57:16.058Z,65.68
2023-03-18T10:59:47.719Z,66.28
2023-03-18T11:02:33.264Z,65.36
2023-03-18T11:05:05.174Z,66.16
2023-03-18T11:07:32.360Z,67.29
2023-03-18T11:10:13.416Z,65.04
2023-03-18T11:12:40.498Z,66.79
2023-03-18T11:15:13.030Z,66.35
2023-03-18T11:17:40.960Z,67.62
2023-03-18T11:20:25.361Z,68.02
2023-03-18T11:22:55.800Z,67.22
2023-03-18T11:25:26.764Z,66.45
2023-03-18T11:28:04.491Z,66.17
2023-03-18T11:30:45.560Z,65.38
2023-03-18T11:33:12.712Z,66.32
2023-03-18T11:35:45.470Z,66.01
2023-03-18T11:38:18.935Z,66.39
2023-03-18T11:40:46.696Z,64.01
2023-03-18T11:43:22.362Z,65.66
2023-03-18T11:45:52.355Z,65.75
2023-03-18T11:48:38.347Z,65.83
2023-03-18T11:51:42.446Z,65.20
2023-03-18T11:54:26.625Z,65.30
2023-03-18T11:57:01.780Z,65.25
2023-03-18T11:59:52.673Z,65.79
2023-03-18T12:02:42.765Z,67.28
2023-03-18T12:05:41.015Z,67.14
2023-03-18T12:08:09.911Z,65.94
2023-03-18T12:10:41.214Z,65.90
2023-03-18T12:13:51.337Z,66.21
2023-03-18T12:16:27.940Z,66.83
2023-03-18T12:19:30.063Z,67.05
2023-03-18T12:22:24.088Z,65.77
2023-03-18T12:25:09.327Z,66.68
2023-03-18T12:28:06.316Z,66.55
2023-03-18T12:30:42.680Z,67.67
2023-03-18T12:33:34.153Z,68.08
2023-03-18T12:36:04.107Z,68.64
2023-03-18T12:38:53.450Z,68.72
2023-03-18T12:41:29.660Z,68.78
2023-03-18T12:44:15.148Z,69.12
2023-03-18T12:46:53.990Z,70.02
2023-03-18T12:49:53.512Z,69.71
2023-03-18T12:52:40.315Z,70.44
2023-03-18T12:55:16.358Z,69.48
2023-03-18T12:58:20.405Z,69.14
2023-03-18T13:01:18.415Z,71.13
2023-03-18T13:04:07.721Z,71.68
2023-03-18T13:06:51.547Z,69.63
2023-03-18T13:09:51.734Z,69.10
2023-03-18T13:12:28.984Z,68.17
2023-03-18T13:15:07.204Z,68.65
2023-03-18T13:17:41.267Z,70.25
2023-03-18T13:20:14.645Z,70.74
2023-03-18T13:22:44.234Z,73.72
2023-03-18T13:25:14.045Z,75.74
2023-03-18T13:28:05.735Z,76.22
2023-03-18T13:30:51.435Z,77.53
2023-03-18T13:33:43.031Z,78.63
2023-03-18T13:36:10.584Z,80.09
2023-03-18T13:39:15.258Z,82.34
2023-03-18T13:41:52.364Z,83.35
2023-03-18T13:44:25.565Z,83.78
2023-03-18T13:47:03.659Z,85.23
2023-03-18T13:49:32.869Z,85.45
2023-03-18T13:52:03.965Z,85.94
2023-03-18T13:54:36.716Z,87.17
2023-03-18T13:57:54.211Z,85.49
2023-03-18T14:00:40.625Z,85.85
2023-03-18T14:03:13.504Z,86.77
2023-03-18T14:05:42.702Z,85.85
2023-03-18T14:08:36.168Z,86.78
2023-03-18T14:11:19.916Z,88.00
2023-03-18T14:13:55.478Z,87.80
2023-03-18T14:16:30.313Z,87.17
2023-03-18T14:19:06.249Z,88.26
2023-03-18T14:21:34.446Z,90.95
2023-03-18T14:24:26.234Z,89.89
2023-03-18T14:27:05.349Z,88.87
2023-03-18T14:29:35.209Z,89.27
2023-03-18T14:32:08.561Z,88.67
2023-03-18T14:34:55.249Z,90.92
2023-03-18T14:37:30.944Z,89.35
2023-03-18T14:40:17.132Z,88.92
2023-03-18T14:43:10.580Z,89.54
2023-03-18T14:45:44.897Z,89.81
2023-03-18T14:48:19.115Z,90.54
2023-03-18T14:50:49.782Z,89.37
2023-03-18T14:53:40.342Z,88.14
2023-03-18T14:56:18.365Z,88.89
2023-03-18T14:58:47.742Z,88.54
2023-03-18T15:01:17.938Z,88.34
2023-03-18T15:03:49.942Z,90.30
2023-03-18T15:06:29.345Z,90.12
2023-03-18T15:09:08.486Z,86.57
2023-03-18T15:11:41.450Z,89.45
2023-03-18T15:14:30.151Z,91.15
2023-03-18T15:17:01.102Z,88.81
2023-03-18T15:19:29.521Z,89.07
2023-03-18T15:22:03.618Z,88.52
2023-03-18T15:24:31.029Z,91.45
2023-03-18T15:26:59.350Z,90.75
2023-03-18T15:29:33.963Z,91.82
2023-03-18T15:32:20.278Z,91.58
2023-03-18T15:35:06.568Z,94.01
2023-03-18T15:37:40.764Z,95.09
2023-03-18T15:40:32.259Z,96.92
2023-03-18T15:43:18.198Z,97.89
2023-03-18T15:45:52.156Z,98.35
2023-03-18T15:48:27.170Z,98.99
2023-03-18T15:50:58.432Z,99.90
2023-03-18T15:53:34.663Z,99.70
2023-03-18T15:56:19.932Z,99.70
2023-03-18T15:59:06.474Z,100.00
2023-03-18T16:01:35.413Z,100.00
2023-03-18T16:04:06.694Z,100.00
2023-03-18T16:06:35.113Z,100.00
2023-03-18T16:09:14.002Z,100.00
2023-03-18T16:11:41.459Z,100.00
2023-03-18T16:14:15.082Z,98.59
2023-03-18T16:16:42.655Z,99.08
2023-03-18T16:19:25.155Z,96.83
2023-03-18T16:21:53.125Z,100.00
2023-03-18T16:24:20.488Z,100.00
2023-03-18T16:26:47.876Z,100.00
2023-03-18T16:29:16.935Z,99.46
2023-03-18T16:31:44.957Z,100.00
2023-03-18T16:34:17.189Z,100.00
2023-03-18T16:36:44.507Z,98.29
2023-03-18T16:39:27.476Z,100.00
2023-03-18T16:41:54.940Z,98.98
2023-03-18T16:44:23.742Z,98.48
2023-03-18T16:46:54.635Z,96.73
2023-03-18T16:49:26.220Z,95.69
2023-03-18T16:51:53.966Z,94.11
2023-03-18T16:54:42.971Z,96.69
2023-03-18T16:57:17.606Z,97.55
2023-03-18T16:59:49.986Z,96.20
2023-03-18T17:02:31.371Z,91.99
2023-03-18T17:04:59.039Z,92.38
2023-03-18T17:07:26.796Z,90.75
2023-03-18T17:09:53.760Z,89.09
2023-03-18T17:12:22.033Z,91.25
2023-03-18T17:14:54.829Z,95.40
2023-03-18T17:17:21.781Z,96.49
2023-03-18T17:19:49.001Z,96.94
2023-03-18T17:22:25.880Z,98.08
2023-03-18T17:24:53.007Z,96.49
2023-03-18T17:27:26.868Z,94.74
2023-03-18T17:29:53.977Z,94.95
2023-03-18T17:32:22.358Z,92.71
2023-03-18T17:34:51.487Z,97.39
2023-03-18T17:37:19.296Z,94.68
2023-03-18T17:39:47.195Z,93.35
2023-03-18T17:42:28.186Z,91.75
2023-03-18T17:44:55.585Z,90.17
2023-03-18T17:47:22.903Z,91.95
2023-03-18T17:49:49.895Z,93.82
2023-03-18T17:52:22.214Z,94.55
2023-03-18T17:54:49.892Z,97.40
2023-03-18T17:57:18.313Z,95.52
2023-03-18T17:59:46.113Z,92.97
2023-03-18T18:02:21.327Z,93.58
2023-03-18T18:04:48.484Z,97.33
2023-03-18T18:07:21.903Z,98.60
2023-03-18T18:09:49.886Z,95.94
2023-03-18T18:12:22.107Z,92.78
2023-03-18T18:14:50.229Z,99.05
2023-03-18T18:17:18.344Z,100.00
2023-03-18T18:19:45.698Z,100.00
2023-03-18T18:22:22.771Z,100.00
2023-03-18T18:24:51.639Z,100.00
2023-03-18T18:27:19.487Z,100.00
2023-03-18T18:29:47.014Z,100.00
2023-03-18T18:32:15.638Z,100.00
2023-03-18T18:34:42.762Z,100.00
2023-03-18T18:37:09.968Z,99.40
2023-03-18T18:39:36.967Z,97.54
2023-03-18T18:42:04.562Z,96.98
2023-03-18T18:44:31.931Z,100.00
2023-03-18T18:46:58.998Z,100.00
2023-03-18T18:49:26.119Z,96.51
2023-03-18T18:51:55.107Z,96.47
2023-03-18T18:54:23.543Z,100.00
2023-03-18T18:56:51.374Z,100.00
2023-03-18T18:59:30.940Z,100.00
2023-03-18T19:01:58.603Z,97.24
2023-03-18T19:04:25.716Z,100.00
2023-03-18T19:06:53.880Z,96.49
2023-03-18T19:09:26.105Z,96.38
2023-03-18T19:11:56.252Z,95.10
2023-03-18T19:14:27.467Z,97.70
2023-03-18T19:16:58.395Z,99.57
2023-03-18T19:19:31.418Z,98.46
2023-03-18T19:21:58.998Z,99.42
2023-03-18T19:24:37.001Z,99.03
2023-03-18T19:27:07.237Z,100.00
2023-03-18T19:29:34.406Z,100.00
2023-03-18T19:32:02.035Z,99.93
2023-03-18T19:34:32.354Z,97.37
2023-03-18T19:37:02.877Z,98.88
2023-03-18T19:39:30.149Z,99.83
2023-03-18T19:41:57.194Z,98.45
2023-03-18T19:44:26.275Z,96.25
2023-03-18T19:46:56.672Z,100.00
2023-03-18T19:49:32.539Z,100.00
2023-03-18T19:52:00.207Z,100.00
2023-03-18T19:54:32.479Z,100.00
2023-03-18T19:57:22.725Z,97.47
2023-03-18T19:59:51.434Z,100.00
2023-03-18T20:02:25.187Z,100.00
2023-03-18T20:04:54.961Z,99.41
2023-03-18T20:07:23.950Z,98.91
2023-03-18T20:09:51.576Z,100.00
2023-03-18T20:12:25.926Z,100.00
2023-03-18T20:14:53.441Z,100.00
2023-03-18T20:17:37.590Z,100.00
2023-03-18T20:20:07.508Z,100.00
2023-03-18T20:22:40.875Z,98.69
2023-03-18T20:25:15.843Z,96.13
2023-03-18T20:27:43.000Z,93.90
2023-03-18T20:30:31.080Z,94.52
2023-03-18T20:32:58.496Z,100.00
2023-03-18T20:35:28.984Z,100.00
2023-03-18T20:37:58.872Z,98.88
2023-03-18T20:40:28.410Z,96.45
2023-03-18T20:42:55.959Z,98.74
2023-03-18T20:45:24.868Z,98.80
2023-03-18T20:47:51.875Z,97.61
2023-03-18T20:50:22.882Z,99.17
2023-03-18T20:52:50.804Z,99.28
2023-03-18T20:55:27.015Z,97.01
2023-03-18T20:57:54.537Z,96.57
2023-03-18T21:00:24.393Z,97.46
2023-03-18T21:02:54.382Z,96.11
2023-03-18T21:05:22.484Z,95.58
2023-03-18T21:07:49.592Z,94.96
2023-03-18T21:10:37.348Z,95.28
2023-03-18T21:13:26.052Z,96.24
2023-03-18T21:15:53.524Z,95.72
2023-03-18T21:18:20.750Z,95.92
2023-03-18T21:20:47.987Z,94.68
2023-03-18T21:23:26.917Z,95.18
2023-03-18T21:25:54.832Z,93.37
2023-03-18T21:28:23.833Z,94.97
2023-03-18T21:30:58.131Z,95.70
2023-03-18T21:33:27.985Z,95.28
2023-03-18T21:35:58.308Z,98.26
2023-03-18T21:38:35.094Z,100.00
2023-03-18T21:41:02.788Z,100.00
2023-03-18T21:43:35.858Z,100.00
2023-03-18T21:46:04.939Z,100.00
2023-03-18T21:48:32.348Z,100.00
2023-03-18T21:50:59.803Z,97.74
2023-03-18T21:53:28.250Z,99.16
2023-03-18T21:55:55.930Z,100.00
2023-03-18T21:58:25.808Z,100.00
2023-03-18T22:00:55.857Z,100.00
2023-03-18T22:03:24.900Z,100.00
2023-03-18T22:05:52.917Z,99.31
2023-03-18T22:08:21.278Z,100.00
2023-03-18T22:10:50.660Z,97.57
2023-03-18T22:13:26.162Z,96.31
2023-03-18T22:15:54.778Z,100.00
2023-03-18T22:18:22.753Z,99.97
2023-03-18T22:20:51.634Z,98.21
2023-03-18T22:23:24.394Z,97.09
2023-03-18T22:25:53.937Z,98.36
2023-03-18T22:28:22.272Z,100.00
2023-03-18T22:30:56.167Z,100.00
2023-03-18T22:33:28.096Z,100.00
2023-03-18T22:35:55.628Z,100.00
2023-03-18T22:38:24.465Z,100.00
2023-03-18T22:40:54.454Z,100.00
2023-03-18T22:43:28.335Z,100.00
2023-03-18T22:45:56.796Z,100.00
2023-03-18T22:48:23.955Z,100.00
2023-03-18T22:50:51.672Z,100.00
2023-03-18T22:53:23.093Z,100.00
2023-03-18T22:55:53.789Z,100.00
2023-03-18T22:58:27.181Z,100.00
2023-03-18T23:00:55.266Z,100.00
2023-03-18T23:03:26.667Z,100.00
2023-03-18T23:05:55.295Z,100.00
2023-03-18T23:08:22.882Z,100.00
2023-03-18T23:10:51.629Z,100.00
2023-03-18T23:13:39.379Z,100.00
2023-03-18T23:16:09.351Z,100.00
2023-03-18T23:18:37.606Z,100.00
2023-03-18T23:21:05.253Z,100.00
2023-03-18T23:23:32.385Z,100.00
2023-03-18T23:25:59.601Z,100.00
2023-03-18T23:28:26.617Z,100.00
2023-03-18T23:30:53.932Z,100.00
2023-03-18T23:33:20.938Z,100.00
2023-03-18T23:35:48.978Z,100.00
2023-03-18T23:38:16.310Z,100.00
2023-03-18T23:40:43.424Z,100.00
2023-03-18T23:43:10.509Z,100.00
2023-03-18T23:45:38.783Z,100.00
2023-03-18T23:48:06.853Z,100.00
2023-03-18T23:50:34.357Z,98.69
2023-03-18T23:53:01.906Z,96.23
2023-03-18T23:55:34.933Z,95.64
2023-03-18T23:58:03.866Z,95.72
